Time;durP1;ratioP1;P1;durP2;ratioP2;P2;SDS_P1;SDS_P2;PMS_P1;PMS_P2;Temp;Humidity;BMP_temperature;BMP_pressure;BME280_temperature;BME280_humidity;BME280_pressure;Samples;Min_cycle;Max_cycle;Signal;HPM_P1;HPM_P2
2022/01/17 00:01:34;;;;;;;0.00;0.00;;;;;;;4.62;100.00;102185.88;10329513;28;20486;-70
2022/01/17 00:06:35;;;;;;;0.00;0.00;;;;;;;4.65;100.00;102200.69;10366469;28;20041;-70
2022/01/17 00:11:40;;;;;;;0.00;0.00;;;;;;;4.66;100.00;102182.16;10342494;28;20109;-70
2022/01/17 00:16:45;;;;;;;;;;;;;;;4.69;100.00;102181.13;10331286;28;20265;-70
2022/01/17 00:21:45;;;;;;;0.00;0.00;;;;;;;4.72;100.00;102160.69;10330329;28;20008;-70
2022/01/17 00:26:50;;;;;;;0.00;0.00;;;;;;;4.76;100.00;102154.28;10330305;28;20028;-69
2022/01/17 00:31:50;;;;;;;0.00;0.00;;;;;;;4.80;100.00;102125.06;10330140;28;20019;-70
2022/01/17 00:36:51;;;;;;;0.00;0.00;;;;;;;4.80;100.00;102136.50;10348197;28;20022;-69
2022/01/17 00:41:51;;;;;;;0.00;0.00;;;;;;;4.85;100.00;102139.69;10340080;28;20145;-70
2022/01/17 00:46:52;;;;;;;0.00;0.00;;;;;;;4.92;100.00;102146.31;10329095;28;20101;-69
2022/01/17 00:51:52;;;;;;;0.00;0.00;;;;;;;4.99;100.00;102152.94;10332280;28;20018;-69
2022/01/17 00:56:53;;;;;;;0.00;0.00;;;;;;;5.06;100.00;102153.44;10331343;28;20373;-69
2022/01/17 01:01:53;;;;;;;0.00;0.00;;;;;;;5.09;100.00;102150.63;10369061;28;20129;-69
2022/01/17 01:06:53;;;;;;;0.00;0.00;;;;;;;5.12;100.00;102152.19;10369190;28;20017;-69
2022/01/17 01:11:54;;;;;;;0.00;0.00;;;;;;;5.16;100.00;102143.16;10343352;28;20015;-69
2022/01/17 01:16:56;;;;;;;0.00;0.00;;;;;;;5.18;100.00;102107.81;10331539;28;20456;-70
2022/01/17 01:27:42;;;;;;;0.00;0.00;;;;;;;5.16;100.00;102135.25;10300597;28;20034;-69
2022/01/17 01:32:50;;;;;;;0.00;0.00;;;;;;;5.15;100.00;102112.44;10336675;28;20483;-69
2022/01/17 01:37:51;;;;;;;0.00;0.00;;;;;;;5.10;100.00;102106.56;10327614;28;20018;-69
2022/01/17 01:42:52;;;;;;;0.00;0.00;;;;;;;5.10;100.00;102111.84;10329534;28;20377;-69
2022/01/17 01:47:52;;;;;;;0.00;0.00;;;;;;;5.08;100.00;102111.91;10361115;28;20018;-69
2022/01/17 01:52:53;;;;;;;0.00;0.00;;;;;;;5.07;100.00;102114.66;10349489;28;20302;-69
2022/01/17 01:57:53;;;;;;;0.00;0.00;;;;;;;5.10;100.00;102135.63;10337296;28;20035;-69
2022/01/17 02:02:54;;;;;;;0.00;0.00;;;;;;;5.08;100.00;102121.66;10367409;28;20084;-69
2022/01/17 02:07:54;;;;;;;0.00;0.00;;;;;;;5.09;100.00;102144.47;10363440;28;20033;-69
2022/01/17 02:12:54;;;;;;;0.00;0.00;;;;;;;5.07;100.00;102141.09;10345227;28;20022;-69
2022/01/17 02:17:56;;;;;;;0.00;0.00;;;;;;;5.12;100.00;102133.72;10348394;28;20368;-69
2022/01/17 02:22:56;;;;;;;0.00;0.00;;;;;;;5.16;100.00;102141.38;10329866;28;20027;-69
2022/01/17 02:27:57;;;;;;;0.00;0.00;;;;;;;5.22;100.00;102129.59;10326407;28;20482;-69
2022/01/17 02:32:59;;;;;;;0.00;0.00;;;;;;;5.28;100.00;102131.84;10357483;28;20025;-69
2022/01/17 02:37:59;;;;;;;0.00;0.00;;;;;;;5.34;100.00;102131.47;10371473;28;20084;-69
2022/01/17 02:43:02;;;;;;;0.00;0.00;;;;;;;5.36;100.00;102124.31;10333986;28;20076;-69
2022/01/17 02:48:06;;;;;;;0.00;0.00;;;;;;;5.44;100.00;102126.50;10333746;28;20250;-69
2022/01/17 02:53:09;;;;;;;0.00;0.00;;;;;;;5.45;100.00;102099.97;10347856;28;20025;-69
2022/01/17 02:58:09;;;;;;;0.00;0.00;;;;;;;5.45;100.00;102091.19;10360550;28;20030;-69
2022/01/17 03:03:14;;;;;;;0.00;0.00;;;;;;;5.43;100.00;102058.72;10374091;28;20508;-69
2022/01/17 03:08:16;;;;;;;0.00;0.00;;;;;;;5.42;100.00;102059.69;10368987;28;20026;-69
2022/01/17 03:13:24;;;;;;;0.00;0.00;;;;;;;5.37;100.00;102036.19;10333790;28;20073;-69
2022/01/17 03:18:28;;;;;;;0.00;0.00;;;;;;;5.40;100.00;102035.97;10357220;28;20055;-69
2022/01/17 03:23:28;;;;;;;0.00;0.00;;;;;;;5.36;100.00;102021.28;10332597;28;20385;-69
2022/01/17 03:28:30;;;;;;;0.00;0.00;;;;;;;5.38;100.00;102035.25;10332481;28;20037;-69
2022/01/17 03:33:30;;;;;;;0.00;0.00;;;;;;;5.41;100.00;102029.78;10350643;28;20071;-69
2022/01/17 03:38:32;;;;;;;0.00;0.00;;;;;;;5.43;100.00;102030.50;10371359;28;20358;-69
2022/01/17 03:43:33;;;;;;;0.00;0.00;;;;;;;5.44;100.00;102034.84;10338926;28;20128;-69
2022/01/17 03:48:33;;;;;;;0.00;0.00;;;;;;;5.45;100.00;102027.78;10331552;28;20104;-69
2022/01/17 03:53:34;;;;;;;0.00;0.00;;;;;;;5.41;100.00;102035.06;10331733;28;20049;-69
2022/01/17 03:58:34;;;;;;;0.00;0.00;;;;;;;5.44;100.00;102056.00;10346840;28;20053;-69
2022/01/17 04:03:35;;;;;;;0.00;0.00;;;;;;;5.47;100.00;102072.59;10371911;28;20325;-69
2022/01/17 04:08:35;;;;;;;0.00;0.00;;;;;;;5.47;100.00;102073.47;10357340;28;20034;-69
2022/01/17 04:13:36;;;;;;;0.00;0.00;;;;;;;5.50;100.00;102081.19;10363888;22;20046;-66
2022/01/17 04:18:36;;;;;;;0.00;0.00;;;;;;;5.52;100.00;102060.78;10366685;28;20283;-66
2022/01/17 04:23:36;;;;;;;0.00;0.00;;;;;;;5.54;100.00;102068.63;10368460;28;20098;-66
2022/01/17 04:28:37;;;;;;;0.00;0.00;;;;;;;5.53;100.00;102057.22;10370173;28;20033;-66
2022/01/17 04:33:37;;;;;;;0.00;0.00;;;;;;;5.56;100.00;102088.75;10370646;28;20022;-66
2022/01/17 04:38:37;;;;;;;0.00;0.00;;;;;;;5.56;100.00;102080.81;10369369;28;20438;-66
2022/01/17 04:48:39;;;;;;;0.00;0.00;;;;;;;5.63;100.00;102076.81;10369892;28;20268;-66
2022/01/17 04:53:42;;;;;;;0.00;0.00;;;;;;;5.66;100.00;102067.84;10369251;28;20380;-66
2022/01/17 04:58:42;;;;;;;0.00;0.00;;;;;;;5.70;100.00;102085.22;10368223;28;20288;-66
2022/01/17 05:03:43;;;;;;;0.00;0.00;;;;;;;5.73;100.00;102060.38;10349877;28;20041;-66
2022/01/17 05:08:44;;;;;;;0.00;0.00;;;;;;;5.73;100.00;102058.59;10365974;28;20028;-66
2022/01/17 05:13:48;;;;;;;0.00;0.00;;;;;;;5.78;100.00;102042.44;10367670;28;20028;-66
2022/01/17 05:23:48;;;;;;;0.00;0.00;;;;;;;5.80;100.00;102032.63;10367381;28;20259;-66
2022/01/17 05:28:50;;;;;;;0.00;0.00;;;;;;;5.83;100.00;102021.84;10364728;28;20408;-66
2022/01/17 05:33:51;;;;;;;0.00;0.00;;;;;;;5.89;100.00;102043.44;10368615;28;20029;-66
2022/01/17 05:38:52;;;;;;;0.10;0.10;;;;;;;5.89;100.00;102050.53;10363877;28;20018;-66
2022/01/17 05:43:52;;;;;;;0.00;0.00;;;;;;;5.90;100.00;102055.72;10368049;28;20273;-66
2022/01/17 05:48:53;;;;;;;0.10;0.10;;;;;;;5.95;100.00;102059.91;10366802;28;20032;-66
2022/01/17 05:53:53;;;;;;;0.00;0.00;;;;;;;5.99;100.00;102066.66;10367348;28;20419;-66
2022/01/17 05:58:53;;;;;;;0.00;0.00;;;;;;;6.01;100.00;102040.97;10367909;28;20396;-66
2022/01/17 06:03:54;;;;;;;0.00;0.00;;;;;;;6.04;100.00;102030.19;10366581;28;20754;-66
2022/01/17 06:08:54;;;;;;;0.00;0.00;;;;;;;6.08;100.00;102064.31;10364696;28;20727;-66
2022/01/17 06:13:54;;;;;;;0.00;0.00;;;;;;;6.10;100.00;102062.38;10364995;28;20492;-66
2022/01/17 06:18:54;;;;;;;0.00;0.00;;;;;;;6.12;100.00;102062.31;10365835;28;20026;-66
2022/01/17 06:23:55;;;;;;;0.00;0.00;;;;;;;6.13;100.00;102071.91;10366574;28;20030;-67
2022/01/17 06:28:55;;;;;;;0.00;0.00;;;;;;;6.08;100.00;102074.03;10365759;28;20400;-65
2022/01/17 06:33:56;;;;;;;0.00;0.00;;;;;;;6.03;100.00;102060.25;10366497;28;20754;-66
2022/01/17 06:38:57;;;;;;;0.10;0.10;;;;;;;6.01;100.00;102051.56;10363569;28;20668;-66
2022/01/17 06:43:57;;;;;;;0.10;0.10;;;;;;;6.03;100.00;102053.16;10363632;28;20105;-66
2022/01/17 06:48:57;;;;;;;0.10;0.10;;;;;;;6.09;100.00;102057.22;10361909;28;20023;-66
2022/01/17 06:53:58;;;;;;;0.00;0.00;;;;;;;6.10;100.00;102091.47;10363344;28;20029;-66
2022/01/17 06:58:58;;;;;;;0.00;0.00;;;;;;;6.11;100.00;102092.34;10365537;28;20109;-66
2022/01/17 07:03:59;;;;;;;0.00;0.00;;;;;;;6.15;100.00;102130.88;10365313;28;20530;-66
2022/01/17 07:08:59;;;;;;;0.00;0.00;;;;;;;6.15;100.00;102116.81;10364012;28;20086;-67
2022/01/17 07:13:59;;;;;;;0.00;0.00;;;;;;;6.21;100.00;102088.16;10365367;28;20021;-67
2022/01/17 07:19:00;;;;;;;0.00;0.00;;;;;;;6.24;100.00;102080.00;10359385;28;20026;-67
2022/01/17 07:24:01;;;;;;;0.00;0.00;;;;;;;6.27;100.00;102100.13;10372297;28;20481;-67
2022/01/17 07:29:02;;;;;;;0.00;0.00;;;;;;;6.29;100.00;102103.53;10371530;28;20029;-67
2022/01/17 07:34:04;;;;;;;0.00;0.00;;;;;;;6.29;100.00;102108.84;10372043;28;20025;-66
2022/01/17 07:39:04;;;;;;;0.10;0.10;;;;;;;6.32;100.00;102093.59;10371554;28;20498;-67
2022/01/17 07:44:07;;;;;;;0.00;0.00;;;;;;;6.34;100.00;102115.53;10371693;28;20030;-67
2022/01/17 07:49:10;;;;;;;0.00;0.00;;;;;;;6.35;100.00;102109.28;10368675;28;20024;-67
2022/01/17 07:54:14;;;;;;;0.00;0.00;;;;;;;6.37;100.00;102095.06;10370608;28;20033;-67
2022/01/17 07:59:14;;;;;;;0.00;0.00;;;;;;;6.33;100.00;102105.03;10370938;28;20479;-67
2022/01/17 08:04:15;;;;;;;0.10;0.10;;;;;;;6.38;100.00;102105.56;10371162;28;20025;-67
2022/01/17 08:09:25;;;;;;;0.00;0.00;;;;;;;6.44;100.00;102091.09;10369552;28;20379;-67
2022/01/17 08:14:25;;;;;;;0.00;0.00;;;;;;;6.46;100.00;102087.41;10369382;28;20057;-67
2022/01/17 08:19:25;;;;;;;0.00;0.00;;;;;;;6.43;100.00;102098.19;10369205;28;20085;-67
2022/01/17 08:24:26;;;;;;;0.00;0.00;;;;;;;6.46;100.00;102110.38;10368142;28;20269;-67
2022/01/17 08:29:27;;;;;;;0.00;0.00;;;;;;;6.49;100.00;102124.25;10366954;28;20257;-67
2022/01/17 08:34:28;;;;;;;0.10;0.10;;;;;;;6.45;100.00;102146.56;10367727;28;20018;-67
2022/01/17 08:39:28;;;;;;;0.00;0.00;;;;;;;6.45;100.00;102145.72;10368217;28;20468;-66
2022/01/17 08:44:28;;;;;;;0.00;0.00;;;;;;;6.58;100.00;102157.22;10370481;28;20022;-67
2022/01/17 08:49:29;;;;;;;0.00;0.00;;;;;;;6.58;100.00;102168.66;10368575;28;20465;-67
2022/01/17 08:54:29;;;;;;;0.00;0.00;;;;;;;6.57;100.00;102187.25;10366642;28;20406;-67
2022/01/17 08:59:31;;;;;;;0.00;0.00;;;;;;;6.57;100.00;102188.13;10359535;28;20021;-67
2022/01/17 09:04:32;;;;;;;0.00;0.00;;;;;;;6.55;100.00;102168.00;10355600;28;20029;-67
2022/01/17 09:09:32;;;;;;;0.10;0.10;;;;;;;6.49;100.00;102198.38;10367843;28;20037;-66
2022/01/17 09:14:33;;;;;;;0.00;0.00;;;;;;;6.51;100.00;102211.50;10367409;28;20030;-66
2022/01/17 09:19:35;;;;;;;0.00;0.00;;;;;;;6.49;100.00;102211.59;10367515;28;20028;-66
2022/01/17 09:24:37;;;;;;;0.00;0.00;;;;;;;6.43;100.00;102229.66;10365293;28;20060;-66
2022/01/17 09:29:37;;;;;;;0.00;0.00;;;;;;;6.48;100.00;102251.41;10353258;28;20048;-67
2022/01/17 09:34:38;;;;;;;0.00;0.00;;;;;;;6.50;100.00;102281.28;10365282;28;20096;-66
2022/01/17 09:39:39;;;;;;;0.00;0.00;;;;;;;6.61;100.00;102286.75;10364984;28;20273;-66
2022/01/17 09:44:39;;;;;;;0.00;0.00;;;;;;;6.67;100.00;102294.28;10364323;28;20468;-67
2022/01/17 09:49:44;;;;;;;0.00;0.00;;;;;;;6.68;100.00;102322.47;10366745;28;20018;-67
2022/01/17 09:54:45;;;;;;;0.00;0.00;;;;;;;6.61;100.00;102342.34;10354239;28;20435;-66
2022/01/17 09:59:46;;;;;;;0.00;0.00;;;;;;;6.57;100.00;102339.03;10363958;28;20053;-66
2022/01/17 10:04:46;;;;;;;0.10;0.10;;;;;;;6.53;100.00;102331.38;10366435;28;20060;-65
2022/01/17 10:09:59;;;;;;;0.10;0.10;;;;;;;6.73;100.00;102343.38;10365397;28;20022;-66
2022/01/17 10:15:01;;;;;;;0.10;0.10;;;;;;;6.89;100.00;102324.69;10420745;22;20053;-68
2022/01/17 10:20:03;;;;;;;0.00;0.00;;;;;;;6.91;100.00;102336.88;10413182;28;20014;-68
2022/01/17 10:26:01;;;;;;;0.00;0.00;;;;;;;6.94;100.00;102378.22;10414560;28;20030;-69
2022/01/17 10:35:38;;;;;;;0.10;0.10;;;;;;;6.68;100.00;102353.41;10422446;28;20487;-69
2022/01/17 10:40:42;;;;;;;0.00;0.00;;;;;;;6.56;100.00;102392.06;10418392;28;20100;-69
2022/01/17 10:45:44;;;;;;;0.00;0.00;;;;;;;6.56;100.00;102411.44;10413896;28;20028;-69
2022/01/17 10:50:49;;;;;;;0.00;0.00;;;;;;;6.58;100.00;102411.38;10430523;28;20028;-68
2022/01/17 10:56:06;;;;;;;0.10;0.10;;;;;;;6.46;100.00;102439.44;10421765;28;20013;-68
2022/01/17 11:01:11;;;;;;;0.00;0.00;;;;;;;6.38;100.00;102435.56;10422768;28;20021;-68
2022/01/17 11:06:14;;;;;;;0.03;0.03;;;;;;;6.30;100.00;102465.13;10424714;28;20392;-69
2022/01/17 11:11:15;;;;;;;0.00;0.00;;;;;;;6.26;100.00;102443.28;10419201;28;20033;-68
2022/01/17 11:16:19;;;;;;;0.00;0.00;;;;;;;6.22;100.00;102467.38;10426887;28;20035;-69
2022/01/17 11:21:19;;;;;;;0.00;0.00;;;;;;;5.90;100.00;102470.94;10417300;28;20329;-69
2022/01/17 11:26:19;;;;;;;0.00;0.00;;;;;;;5.57;100.00;102494.00;10424256;28;20611;-69
2022/01/17 11:31:20;;;;;;;0.00;0.00;;;;;;;5.44;100.00;102499.97;10424987;28;20032;-68
2022/01/17 11:36:20;;;;;;;0.00;0.00;;;;;;;5.40;100.00;102511.63;10434123;28;20041;-68
2022/01/17 11:41:36;;;;;;;0.00;0.00;;;;;;;5.47;100.00;102512.16;10433131;28;20070;-68
2022/01/17 11:46:51;;;;;;;0.00;0.00;;;;;;;5.63;100.00;102535.94;10429382;28;20025;-68
2022/01/17 11:51:51;;;;;;;0.00;0.00;;;;;;;5.77;100.00;102541.31;10429204;28;20482;-68
2022/01/17 11:56:58;;;;;;;0.00;0.00;;;;;;;5.87;100.00;102536.34;10430013;28;20074;-68
2022/01/17 12:02:14;;;;;;;0.00;0.00;;;;;;;6.04;98.85;102553.94;10438922;28;20030;-68
2022/01/17 12:07:15;;;;;;;0.00;0.00;;;;;;;6.21;97.14;102545.91;10438971;28;20057;-68
2022/01/17 12:12:16;;;;;;;0.00;0.00;;;;;;;6.17;96.40;102536.44;10426255;28;20056;-68
2022/01/17 12:17:19;;;;;;;0.00;0.00;;;;;;;6.19;98.11;102539.00;10431995;28;20021;-68
2022/01/17 12:22:19;;;;;;;0.10;0.10;;;;;;;6.07;96.43;102535.25;10426282;28;20025;-68
2022/01/17 12:27:22;;;;;;;0.00;0.00;;;;;;;5.97;95.29;102542.03;10417639;28;20024;-68
2022/01/17 12:32:25;;;;;;;0.00;0.00;;;;;;;5.80;92.94;102564.94;10422765;28;20066;-68
2022/01/17 12:37:45;;;;;;;0.00;0.00;;;;;;;5.74;94.51;102573.22;10418135;28;20036;-68
2022/01/17 12:42:49;;;;;;;0.00;0.00;;;;;;;5.74;93.67;102596.19;10425898;28;20024;-68
2022/01/17 12:47:50;;;;;;;0.03;0.03;;;;;;;5.81;95.35;102600.19;10422069;28;20150;-68
2022/01/17 12:52:51;;;;;;;0.00;0.00;;;;;;;5.80;94.34;102577.31;10419986;28;20118;-68
2022/01/17 12:57:52;;;;;;;0.00;0.00;;;;;;;5.70;94.64;102566.38;10427849;28;20112;-68
2022/01/17 13:02:54;;;;;;;0.00;0.00;;;;;;;5.65;93.68;102586.97;10415824;28;20411;-68
2022/01/17 13:07:54;;;;;;;0.00;0.00;;;;;;;5.62;91.02;102593.25;10425709;28;20353;-68
2022/01/17 13:12:57;;;;;;;0.00;0.00;;;;;;;5.57;89.11;102623.53;10419367;28;20104;-68
2022/01/17 13:17:57;;;;;;;0.00;0.00;;;;;;;5.51;89.68;102608.84;10423061;28;20021;-68
2022/01/17 13:23:06;;;;;;;0.00;0.00;;;;;;;5.42;89.54;102598.78;10422534;28;20055;-68
2022/01/17 13:28:07;;;;;;;0.00;0.00;;;;;;;5.34;89.19;102640.59;10419866;28;20028;-68
2022/01/17 13:33:07;;;;;;;0.00;0.00;;;;;;;5.35;88.01;102635.25;10420506;28;20029;-68
2022/01/17 13:38:19;;;;;;;0.00;0.00;;;;;;;5.34;86.76;102657.31;10417082;28;20037;-68
2022/01/17 13:43:20;;;;;;;0.00;0.00;;;;;;;5.28;88.66;102659.44;10415804;28;20025;-70
2022/01/17 13:48:25;;;;;;;0.00;0.00;;;;;;;5.21;90.30;102675.59;10415700;28;20026;-68
2022/01/17 13:53:27;;;;;;;0.00;0.00;;;;;;;5.14;91.29;102700.59;10415363;28;20469;-68
2022/01/17 13:58:30;;;;;;;0.00;0.00;;;;;;;5.05;90.98;102735.41;10430492;28;20022;-68
2022/01/17 14:03:31;;;;;;;0.00;0.00;;;;;;;4.90;86.79;102713.25;10421575;28;20221;-69
2022/01/17 14:08:32;;;;;;;0.00;0.00;;;;;;;4.75;88.68;102716.66;10417714;28;20059;-68
2022/01/17 14:13:47;;;;;;;0.00;0.00;;;;;;;4.62;88.05;102729.59;10413892;28;20024;-68
2022/01/17 14:18:53;;;;;;;0.00;0.00;;;;;;;4.54;88.77;102739.69;10411888;28;20025;-68
2022/01/17 14:24:36;;;;;;;0.00;0.00;;;;;;;4.46;89.12;102753.22;10430862;28;20501;-68
2022/01/17 14:29:42;;;;;;;0.10;0.10;;;;;;;4.42;91.01;102749.03;10365601;28;20040;-68
2022/01/17 14:34:45;;;;;;;0.00;0.00;;;;;;;4.36;91.68;102725.56;10445825;28;20614;-68
2022/01/17 14:39:55;;;;;;;0.00;0.00;;;;;;;4.31;92.53;102746.03;10426934;28;20103;-68
2022/01/17 14:44:58;;;;;;;0.00;0.00;;;;;;;4.26;92.76;102777.91;10425759;28;20033;-68
2022/01/17 14:50:01;;;;;;;0.00;0.00;;;;;;;4.22;93.90;102786.03;10425660;28;20040;-68
2022/01/17 15:00:12;;;;;;;0.00;0.00;;;;;;;4.12;93.64;102797.91;10425183;28;20021;-68
2022/01/17 15:05:15;;;;;;;0.00;0.00;;;;;;;4.08;92.78;102803.34;10423496;28;20021;-68
2022/01/17 15:10:16;;;;;;;0.00;0.00;;;;;;;4.04;94.28;102814.97;10432010;28;20376;-68
2022/01/17 15:15:16;;;;;;;0.00;0.00;;;;;;;3.94;94.76;102818.91;10427801;28;20024;-68
2022/01/17 15:20:17;;;;;;;0.00;0.00;;;;;;;3.87;95.02;102843.84;10424913;28;20133;-68
2022/01/17 15:25:17;;;;;;;0.00;0.00;;;;;;;3.83;95.95;102844.88;10422482;28;20017;-68
2022/01/17 15:30:19;;;;;;;0.00;0.00;;;;;;;3.77;96.33;102868.88;10425548;28;20021;-68
2022/01/17 15:35:26;;;;;;;0.00;0.00;;;;;;;3.72;96.44;102889.28;10422307;28;20104;-68
2022/01/17 15:40:27;;;;;;;0.00;0.00;;;;;;;3.68;96.53;102892.97;10422961;28;20047;-68
2022/01/17 15:45:28;;;;;;;0.00;0.00;;;;;;;3.63;96.24;102891.38;10428493;28;20025;-68
2022/01/17 15:50:28;;;;;;;0.00;0.00;;;;;;;3.59;97.27;102904.75;10427904;28;20374;-68
2022/01/17 15:55:29;;;;;;;0.00;0.00;;;;;;;3.55;97.69;102924.25;10426220;28;20033;-68
2022/01/17 16:00:31;;;;;;;0.00;0.00;;;;;;;3.48;98.15;102942.06;10413821;28;20028;-68
2022/01/17 16:05:32;;;;;;;0.00;0.00;;;;;;;3.49;98.87;102933.28;10412710;28;20025;-68
2022/01/17 16:10:32;;;;;;;0.00;0.00;;;;;;;3.45;98.62;102946.63;10417960;28;20416;-68
2022/01/17 16:15:33;;;;;;;0.00;0.00;;;;;;;3.36;99.71;102951.31;10414012;28;20024;-68
2022/01/17 16:20:33;;;;;;;0.00;0.00;;;;;;;3.32;100.00;102965.56;10411824;28;20283;-68
2022/01/17 16:25:33;;;;;;;0.00;0.00;;;;;;;3.23;100.00;102968.53;10417891;28;20021;-68
2022/01/17 16:30:35;;;;;;;0.00;0.00;;;;;;;3.15;100.00;102976.72;10445809;28;20411;-68
2022/01/17 16:35:35;;;;;;;0.00;0.00;;;;;;;3.11;100.00;102976.88;10452498;28;20492;-68
2022/01/17 16:40:35;;;;;;;0.00;0.00;;;;;;;3.11;100.00;102992.69;10437081;28;20028;-68
2022/01/17 16:45:36;;;;;;;0.00;0.00;;;;;;;3.11;100.00;103001.47;10434319;28;20032;-68
2022/01/17 16:50:36;;;;;;;0.00;0.00;;;;;;;3.07;100.00;103007.75;10433196;22;20045;-67
2022/01/17 16:55:36;;;;;;;0.00;0.00;;;;;;;3.04;100.00;103018.41;10416081;28;20268;-67
2022/01/17 17:00:37;;;;;;;0.00;0.00;;;;;;;2.99;100.00;103016.84;10410547;28;20017;-67
2022/01/17 17:05:37;;;;;;;0.00;0.00;;;;;;;2.94;100.00;103024.94;10419429;28;20371;-67
2022/01/17 17:10:38;;;;;;;0.00;0.00;;;;;;;2.93;100.00;103041.63;10422582;28;20021;-67
2022/01/17 17:15:38;;;;;;;0.00;0.00;;;;;;;2.91;100.00;103049.59;10417618;28;20392;-67
2022/01/17 17:20:40;;;;;;;0.00;0.00;;;;;;;2.88;100.00;103062.88;10409381;28;20018;-67
2022/01/17 17:25:40;;;;;;;0.00;0.00;;;;;;;2.82;100.00;103067.47;10408489;28;20030;-67
2022/01/17 17:30:41;;;;;;;0.00;0.00;;;;;;;2.76;100.00;103079.06;10410167;28;20072;-67
2022/01/17 17:35:42;;;;;;;0.00;0.00;;;;;;;2.72;100.00;103091.47;10409291;28;20072;-67
2022/01/17 17:40:42;;;;;;;0.00;0.00;;;;;;;2.71;100.00;103099.44;10417625;28;20021;-67
2022/01/17 17:45:43;;;;;;;0.00;0.00;;;;;;;2.69;100.00;103096.84;10420154;28;20108;-67
2022/01/17 17:50:43;;;;;;;0.00;0.00;;;;;;;2.65;100.00;103112.81;10409660;28;20018;-67
2022/01/17 17:55:44;;;;;;;0.00;0.00;;;;;;;2.65;100.00;103118.06;10408854;28;20116;-67
2022/01/17 18:00:44;;;;;;;0.00;0.00;;;;;;;2.69;100.00;103128.44;10409460;28;20136;-67
2022/01/17 18:05:48;;;;;;;0.00;0.00;;;;;;;2.77;100.00;103140.50;10409853;28;20515;-67
2022/01/17 18:10:48;;;;;;;0.00;0.00;;;;;;;2.80;100.00;103127.22;10434139;28;20024;-67
2022/01/17 18:15:48;;;;;;;0.00;0.00;;;;;;;2.88;100.00;103135.69;10449977;28;20377;-67
2022/01/17 18:20:49;;;;;;;0.00;0.00;;;;;;;2.96;100.00;103146.81;10450764;28;20017;-67
2022/01/17 18:25:51;;;;;;;0.00;0.00;;;;;;;3.01;100.00;103139.63;10451104;28;20029;-67
2022/01/17 18:30:52;;;;;;;0.00;0.00;;;;;;;3.00;100.00;103140.56;10450729;28;20264;-67
2022/01/17 18:35:53;;;;;;;0.00;0.00;;;;;;;2.95;100.00;103138.06;10451841;28;20017;-67
2022/01/17 18:40:54;;;;;;;0.00;0.00;;;;;;;2.88;100.00;103146.22;10450093;28;20279;-67
2022/01/17 18:45:54;;;;;;;0.00;0.00;;;;;;;2.80;100.00;103164.06;10450891;28;20037;-68
2022/01/17 18:50:59;;;;;;;0.00;0.00;;;;;;;2.74;100.00;103154.59;10449371;28;20025;-67
2022/01/17 18:56:00;;;;;;;0.00;0.00;;;;;;;2.75;100.00;103163.34;10451478;28;20021;-69
2022/01/17 19:01:00;;;;;;;0.00;0.00;;;;;;;2.69;100.00;103164.41;10450218;28;20070;-69
2022/01/17 19:06:02;;;;;;;0.00;0.00;;;;;;;2.66;100.00;103165.38;10450491;28;20044;-67
2022/01/17 19:11:05;;;;;;;0.00;0.00;;;;;;;2.58;100.00;103167.38;10449613;28;20468;-69
2022/01/17 19:16:05;;;;;;;0.00;0.00;;;;;;;2.53;100.00;103168.44;10455616;28;20110;-68
2022/01/17 19:21:19;;;;;;;0.00;0.00;;;;;;;2.50;100.00;103169.41;10457038;28;20327;-69
2022/01/17 19:26:19;;;;;;;0.00;0.00;;;;;;;2.56;100.00;103189.41;10457313;28;20491;-68
2022/01/17 19:31:20;;;;;;;0.10;0.10;;;;;;;2.66;100.00;103189.06;10456688;28;20017;-67
2022/01/17 19:36:20;;;;;;;0.00;0.00;;;;;;;2.75;100.00;103194.94;10456932;28;20041;-68
2022/01/17 19:41:21;;;;;;;0.00;0.00;;;;;;;2.81;100.00;103200.84;10471262;28;20278;-67
2022/01/17 19:46:22;;;;;;;0.00;0.00;;;;;;;2.93;100.00;103225.91;10497868;28;20284;-68
2022/01/17 19:51:25;;;;;;;0.00;0.00;;;;;;;3.02;100.00;103230.00;10497219;28;20028;-69
2022/01/17 19:56:25;;;;;;;0.00;0.00;;;;;;;3.06;100.00;103227.22;10497825;28;20055;-68
2022/01/17 20:01:27;;;;;;;0.00;0.00;;;;;;;3.07;100.00;103234.22;10495286;28;20048;-68
2022/01/17 20:06:28;;;;;;;0.00;0.00;;;;;;;3.06;100.00;103248.28;10497667;28;20037;-68
2022/01/17 20:11:28;;;;;;;0.00;0.00;;;;;;;3.06;100.00;103258.84;10466627;28;20142;-68
2022/01/17 20:16:31;;;;;;;0.00;0.00;;;;;;;3.08;100.00;103264.88;10455251;28;20029;-67
2022/01/17 20:21:36;;;;;;;0.00;0.00;;;;;;;3.12;100.00;103284.09;10454654;28;20108;-69
2022/01/17 20:26:37;;;;;;;;;;;;;;;3.16;100.00;103289.19;10455004;28;20047;-67
2022/01/17 20:31:37;;;;;;;0.00;0.00;;;;;;;3.21;100.00;103290.84;10454307;28;19908;-69
2022/01/17 20:36:38;;;;;;;0.00;0.00;;;;;;;3.23;100.00;103295.16;10454624;28;20025;-67
2022/01/17 20:41:38;;;;;;;0.00;0.00;;;;;;;3.23;100.00;103296.91;10453713;28;20079;-68
2022/01/17 20:46:38;;;;;;;0.00;0.00;;;;;;;3.23;100.00;103294.25;10454057;28;20029;-68
2022/01/17 20:51:39;;;;;;;0.00;0.00;;;;;;;3.30;100.00;103308.97;10453821;28;20159;-68
2022/01/17 20:56:39;;;;;;;0.00;0.00;;;;;;;3.36;100.00;103319.28;10454173;28;20683;-68
2022/01/17 21:01:40;;;;;;;0.00;0.00;;;;;;;3.39;100.00;103319.19;10452895;28;20021;-68
2022/01/17 21:06:40;;;;;;;0.00;0.00;;;;;;;3.40;100.00;103307.72;10453307;28;20488;-68
2022/01/17 21:11:40;;;;;;;0.00;0.00;;;;;;;3.44;100.00;103306.72;10449988;28;20083;-68
2022/01/17 21:16:41;;;;;;;0.00;0.00;;;;;;;3.48;100.00;103303.06;10453183;28;20404;-68
2022/01/17 21:21:41;;;;;;;0.00;0.00;;;;;;;3.60;100.00;103317.59;10452256;28;20669;-68
2022/01/17 21:26:42;;;;;;;0.00;0.00;;;;;;;3.72;100.00;103326.84;10452657;28;20475;-68
2022/01/17 21:31:44;;;;;;;0.00;0.00;;;;;;;3.77;100.00;103333.69;10443686;28;20021;-68
2022/01/17 21:36:45;;;;;;;0.00;0.00;;;;;;;3.76;100.00;103334.59;10434833;28;20052;-67
2022/01/17 21:41:45;;;;;;;0.00;0.00;;;;;;;3.75;100.00;103342.56;10410091;28;20369;-69
2022/01/17 21:46:46;;;;;;;0.00;0.00;;;;;;;3.75;100.00;103347.81;10407592;28;20773;-67
2022/01/17 21:51:46;;;;;;;0.00;0.00;;;;;;;3.76;100.00;103344.31;10413821;28;20053;-68
2022/01/17 21:56:47;;;;;;;0.00;0.00;;;;;;;3.76;100.00;103355.69;10446175;28;20474;-67
2022/01/17 22:01:47;;;;;;;0.00;0.00;;;;;;;3.76;100.00;103350.44;10448974;28;20365;-68
2022/01/17 22:06:47;;;;;;;0.00;0.00;;;;;;;3.72;100.00;103338.25;10449625;28;20087;-68
2022/01/17 22:11:48;;;;;;;0.00;0.00;;;;;;;3.77;100.00;103336.31;10418721;28;20021;-68
2022/01/17 22:16:48;;;;;;;0.00;0.00;;;;;;;3.85;100.00;103336.06;10406993;28;20029;-68
2022/01/17 22:21:48;;;;;;;0.00;0.00;;;;;;;3.92;100.00;103340.19;10407929;28;20021;-69
2022/01/17 22:26:49;;;;;;;0.00;0.00;;;;;;;3.97;100.00;103330.34;10408280;28;20075;-68
2022/01/17 22:31:50;;;;;;;0.00;0.00;;;;;;;4.01;100.00;103339.00;10417345;28;20016;-68
2022/01/17 22:36:50;;;;;;;0.00;0.00;;;;;;;4.04;100.00;103341.53;10426122;28;20046;-66
2022/01/17 22:41:50;;;;;;;0.00;0.00;;;;;;;4.08;100.00;103345.78;10413889;28;20026;-67
2022/01/17 22:46:54;;;;;;;0.00;0.00;;;;;;;4.08;100.00;103358.97;10408012;28;20264;-68
2022/01/17 22:51:55;;;;;;;0.00;0.00;;;;;;;4.08;100.00;103353.72;10353804;22;20045;-68
2022/01/17 22:56:56;;;;;;;0.00;0.00;;;;;;;4.07;100.00;103367.78;10334198;28;20488;-68
2022/01/17 23:01:56;;;;;;;0.00;0.00;;;;;;;4.06;100.00;103385.41;10329514;28;20296;-68
2022/01/17 23:06:56;;;;;;;0.00;0.00;;;;;;;4.05;100.00;103388.09;10294103;28;20065;-68
2022/01/17 23:11:57;;;;;;;0.00;0.00;;;;;;;4.05;100.00;103374.91;10327533;28;20027;-68
2022/01/17 23:17:00;;;;;;;0.00;0.00;;;;;;;4.05;100.00;103386.31;10332720;28;20022;-68
2022/01/17 23:22:03;;;;;;;0.00;0.00;;;;;;;4.08;100.00;103383.59;10329387;28;20038;-68
2022/01/17 23:27:03;;;;;;;0.00;0.00;;;;;;;4.18;100.00;103378.81;10330153;28;20045;-69
2022/01/17 23:37:23;;;;;;;0.00;0.00;;;;;;;4.39;100.00;103379.81;10332488;28;20109;-68
2022/01/17 23:42:24;;;;;;;0.00;0.00;;;;;;;4.47;100.00;103393.59;10331874;28;20101;-68